sensor_id;sensor_type;location;lat;lon;timestamp;pressure;altitude;pressure_sealevel;temperature;humidity
49393;BME280;35268;42.642;23.308;2023-09-30T00:02:15;94371.84;;;16.53;55.22
49393;BME280;35268;42.642;23.308;2023-09-30T00:04:40;94365.91;;;16.48;55.40
49393;BME280;35268;42.642;23.308;2023-09-30T00:07:05;94355.47;;;16.46;54.94
49393;BME280;35268;42.642;23.308;2023-09-30T00:12:41;94360.31;;;16.53;54.48
49393;BME280;35268;42.642;23.308;2023-09-30T00:15:06;94356.28;;;16.59;55.13
49393;BME280;35268;42.642;23.308;2023-09-30T00:17:32;94357.25;;;16.54;54.64
49393;BME280;35268;42.642;23.308;2023-09-30T00:19:58;94362.31;;;16.56;54.17
49393;BME280;35268;42.642;23.308;2023-09-30T00:22:24;94366.47;;;16.65;54.01
49393;BME280;35268;42.642;23.308;2023-09-30T00:24:50;94352.75;;;16.71;54.58
49393;BME280;35268;42.642;23.308;2023-09-30T00:27:16;94360.50;;;16.72;54.63
49393;BME280;35268;42.642;23.308;2023-09-30T00:29:41;94357.59;;;16.77;55.06
49393;BME280;35268;42.642;23.308;2023-09-30T00:32:07;94350.28;;;16.78;56.11
49393;BME280;35268;42.642;23.308;2023-09-30T00:34:36;94348.69;;;16.77;53.41
49393;BME280;35268;42.642;23.308;2023-09-30T00:37:02;94347.59;;;16.78;52.39
49393;BME280;35268;42.642;23.308;2023-09-30T00:39:27;94357.69;;;16.81;53.06
49393;BME280;35268;42.642;23.308;2023-09-30T00:41:57;94349.84;;;16.88;52.59
49393;BME280;35268;42.642;23.308;2023-09-30T00:44:25;94350.63;;;16.89;53.89
49393;BME280;35268;42.642;23.308;2023-09-30T00:46:50;94354.09;;;16.89;53.26
49393;BME280;35268;42.642;23.308;2023-09-30T00:49:16;94355.66;;;16.90;53.45
49393;BME280;35268;42.642;23.308;2023-09-30T00:51:44;94357.34;;;16.95;53.23
49393;BME280;35268;42.642;23.308;2023-09-30T00:54:10;94349.81;;;17.00;51.78
49393;BME280;35268;42.642;23.308;2023-09-30T00:56:37;94345.53;;;16.99;51.30
49393;BME280;35268;42.642;23.308;2023-09-30T00:59:10;94365.84;;;16.97;51.94
49393;BME280;35268;42.642;23.308;2023-09-30T01:01:36;94349.56;;;17.05;50.58
49393;BME280;35268;42.642;23.308;2023-09-30T01:04:02;94352.03;;;17.11;51.55
49393;BME280;35268;42.642;23.308;2023-09-30T01:06:28;94351.13;;;17.07;51.67
49393;BME280;35268;42.642;23.308;2023-09-30T01:08:53;94343.84;;;17.07;52.00
49393;BME280;35268;42.642;23.308;2023-09-30T01:11:20;94335.41;;;17.09;52.68
49393;BME280;35268;42.642;23.308;2023-09-30T01:13:46;94347.06;;;17.13;52.50
49393;BME280;35268;42.642;23.308;2023-09-30T01:16:12;94337.88;;;17.14;52.20
49393;BME280;35268;42.642;23.308;2023-09-30T01:18:39;94339.44;;;17.15;52.40
49393;BME280;35268;42.642;23.308;2023-09-30T01:21:08;94340.56;;;17.14;52.72
49393;BME280;35268;42.642;23.308;2023-09-30T01:23:35;94344.38;;;17.13;52.63
49393;BME280;35268;42.642;23.308;2023-09-30T01:26:02;94339.88;;;17.17;52.14
49393;BME280;35268;42.642;23.308;2023-09-30T01:28:29;94346.41;;;17.16;52.71
49393;BME280;35268;42.642;23.308;2023-09-30T01:30:54;94343.72;;;17.16;53.63
49393;BME280;35268;42.642;23.308;2023-09-30T01:33:20;94342.56;;;17.17;53.43
49393;BME280;35268;42.642;23.308;2023-09-30T01:35:45;94349.53;;;17.18;53.22
49393;BME280;35268;42.642;23.308;2023-09-30T01:38:11;94339.53;;;17.18;53.17
49393;BME280;35268;42.642;23.308;2023-09-30T01:40:36;94342.66;;;17.20;53.20
49393;BME280;35268;42.642;23.308;2023-09-30T01:43:03;94331.13;;;17.20;53.51
49393;BME280;35268;42.642;23.308;2023-09-30T01:45:29;94341.09;;;17.19;53.21
49393;BME280;35268;42.642;23.308;2023-09-30T01:47:54;94335.81;;;17.23;52.70
49393;BME280;35268;42.642;23.308;2023-09-30T01:50:20;94337.38;;;17.24;53.09
49393;BME280;35268;42.642;23.308;2023-09-30T01:52:45;94341.91;;;17.20;52.74
49393;BME280;35268;42.642;23.308;2023-09-30T01:55:11;94338.06;;;17.21;53.38
49393;BME280;35268;42.642;23.308;2023-09-30T01:57:36;94333.44;;;17.21;53.93
49393;BME280;35268;42.642;23.308;2023-09-30T02:00:02;94331.78;;;17.17;54.05
49393;BME280;35268;42.642;23.308;2023-09-30T02:02:28;94332.69;;;17.21;53.45
49393;BME280;35268;42.642;23.308;2023-09-30T02:04:53;94333.38;;;17.18;52.96
49393;BME280;35268;42.642;23.308;2023-09-30T02:07:19;94322.16;;;17.16;53.14
49393;BME280;35268;42.642;23.308;2023-09-30T02:09:44;94333.00;;;17.19;54.81
49393;BME280;35268;42.642;23.308;2023-09-30T02:12:10;94324.41;;;17.14;55.09
49393;BME280;35268;42.642;23.308;2023-09-30T02:14:37;94328.47;;;17.08;54.79
49393;BME280;35268;42.642;23.308;2023-09-30T02:17:09;94326.00;;;17.02;53.45
49393;BME280;35268;42.642;23.308;2023-09-30T02:19:35;94328.50;;;16.95;53.68
49393;BME280;35268;42.642;23.308;2023-09-30T02:22:19;94326.94;;;16.94;53.90
49393;BME280;35268;42.642;23.308;2023-09-30T02:24:54;94324.72;;;16.84;53.88
49393;BME280;35268;42.642;23.308;2023-09-30T02:27:20;94323.25;;;16.74;54.91
49393;BME280;35268;42.642;23.308;2023-09-30T02:29:45;94330.56;;;16.74;55.03
49393;BME280;35268;42.642;23.308;2023-09-30T02:32:11;94333.28;;;16.61;54.29
49393;BME280;35268;42.642;23.308;2023-09-30T02:34:37;94327.66;;;16.54;55.06
49393;BME280;35268;42.642;23.308;2023-09-30T02:37:03;94333.06;;;16.54;56.10
49393;BME280;35268;42.642;23.308;2023-09-30T02:39:29;94329.47;;;16.50;57.18
49393;BME280;35268;42.642;23.308;2023-09-30T02:41:54;94329.72;;;16.45;57.40
49393;BME280;35268;42.642;23.308;2023-09-30T02:44:19;94326.59;;;16.43;56.60
49393;BME280;35268;42.642;23.308;2023-09-30T02:46:45;94341.25;;;16.33;56.22
49393;BME280;35268;42.642;23.308;2023-09-30T02:49:11;94329.81;;;16.24;56.26
49393;BME280;35268;42.642;23.308;2023-09-30T02:51:36;94331.41;;;16.25;56.84
49393;BME280;35268;42.642;23.308;2023-09-30T02:54:06;94337.34;;;16.18;56.23
49393;BME280;35268;42.642;23.308;2023-09-30T02:56:32;94331.84;;;16.15;56.25
49393;BME280;35268;42.642;23.308;2023-09-30T02:58:58;94331.53;;;16.16;54.26
49393;BME280;35268;42.642;23.308;2023-09-30T03:01:25;94330.19;;;16.10;53.47
49393;BME280;35268;42.642;23.308;2023-09-30T03:03:51;94333.78;;;16.02;54.66
49393;BME280;35268;42.642;23.308;2023-09-30T03:06:17;94331.84;;;16.02;55.51
49393;BME280;35268;42.642;23.308;2023-09-30T03:08:44;94336.66;;;15.97;56.08
49393;BME280;35268;42.642;23.308;2023-09-30T03:11:09;94330.97;;;15.98;56.54
49393;BME280;35268;42.642;23.308;2023-09-30T03:13:38;94330.84;;;15.95;57.59
49393;BME280;35268;42.642;23.308;2023-09-30T03:16:03;94337.88;;;15.87;56.35
49393;BME280;35268;42.642;23.308;2023-09-30T03:18:29;94342.72;;;15.81;55.96
49393;BME280;35268;42.642;23.308;2023-09-30T03:20:59;94330.38;;;15.80;56.65
49393;BME280;35268;42.642;23.308;2023-09-30T03:23:34;94327.44;;;15.73;56.25
49393;BME280;35268;42.642;23.308;2023-09-30T03:26:00;94338.50;;;15.59;57.38
49393;BME280;35268;42.642;23.308;2023-09-30T03:28:29;94335.88;;;15.51;58.04
49393;BME280;35268;42.642;23.308;2023-09-30T03:30:54;94325.13;;;15.51;59.14
49393;BME280;35268;42.642;23.308;2023-09-30T03:33:22;94325.25;;;15.54;58.69
49393;BME280;35268;42.642;23.308;2023-09-30T03:35:50;94343.03;;;15.47;59.29
49393;BME280;35268;42.642;23.308;2023-09-30T03:38:16;94328.06;;;15.45;60.05
49393;BME280;35268;42.642;23.308;2023-09-30T03:40:45;94330.97;;;15.53;60.23
49393;BME280;35268;42.642;23.308;2023-09-30T03:43:14;94335.44;;;15.49;60.50
49393;BME280;35268;42.642;23.308;2023-09-30T03:45:40;94336.88;;;15.46;60.90
49393;BME280;35268;42.642;23.308;2023-09-30T03:48:06;94323.34;;;15.55;60.75
49393;BME280;35268;42.642;23.308;2023-09-30T03:50:32;94323.81;;;15.57;60.88
49393;BME280;35268;42.642;23.308;2023-09-30T03:53:05;94326.72;;;15.52;61.52
49393;BME280;35268;42.642;23.308;2023-09-30T03:55:32;94323.59;;;15.50;61.42
49393;BME280;35268;42.642;23.308;2023-09-30T03:58:01;94319.88;;;15.54;61.19
49393;BME280;35268;42.642;23.308;2023-09-30T04:00:29;94321.47;;;15.55;61.41
49393;BME280;35268;42.642;23.308;2023-09-30T04:02:57;94327.38;;;15.49;61.27
49393;BME280;35268;42.642;23.308;2023-09-30T04:05:26;94335.44;;;15.49;62.16
49393;BME280;35268;42.642;23.308;2023-09-30T04:07:59;94329.16;;;15.44;62.62
49393;BME280;35268;42.642;23.308;2023-09-30T04:10:25;94338.34;;;15.43;62.62
49393;BME280;35268;42.642;23.308;2023-09-30T04:12:53;94330.28;;;15.43;62.56
49393;BME280;35268;42.642;23.308;2023-09-30T04:15:19;94328.69;;;15.42;62.80
49393;BME280;35268;42.642;23.308;2023-09-30T04:17:44;94343.91;;;15.38;62.66
49393;BME280;35268;42.642;23.308;2023-09-30T04:20:10;94337.63;;;15.34;62.46
49393;BME280;35268;42.642;23.308;2023-09-30T04:22:44;94328.34;;;15.32;62.55
49393;BME280;35268;42.642;23.308;2023-09-30T04:25:14;94336.25;;;15.28;62.82
49393;BME280;35268;42.642;23.308;2023-09-30T04:27:42;94334.91;;;15.22;62.88
49393;BME280;35268;42.642;23.308;2023-09-30T04:30:07;94343.31;;;15.20;62.89
49393;BME280;35268;42.642;23.308;2023-09-30T04:32:40;94348.56;;;15.17;62.82
49393;BME280;35268;42.642;23.308;2023-09-30T04:35:06;94345.88;;;15.17;62.58
49393;BME280;35268;42.642;23.308;2023-09-30T04:37:34;94344.72;;;15.18;63.18
49393;BME280;35268;42.642;23.308;2023-09-30T04:39:59;94346.72;;;15.09;63.33
49393;BME280;35268;42.642;23.308;2023-09-30T04:42:24;94353.97;;;15.08;63.33
49393;BME280;35268;42.642;23.308;2023-09-30T04:44:53;94359.81;;;15.10;63.57
49393;BME280;35268;42.642;23.308;2023-09-30T04:47:20;94353.97;;;15.08;63.99
49393;BME280;35268;42.642;23.308;2023-09-30T04:49:47;94361.25;;;15.08;63.82
49393;BME280;35268;42.642;23.308;2023-09-30T04:52:12;94358.09;;;15.05;64.31
49393;BME280;35268;42.642;23.308;2023-09-30T04:54:37;94360.78;;;15.05;64.92
49393;BME280;35268;42.642;23.308;2023-09-30T04:57:03;94365.91;;;14.98;65.38
49393;BME280;35268;42.642;23.308;2023-09-30T04:59:28;94365.19;;;14.89;65.59
49393;BME280;35268;42.642;23.308;2023-09-30T05:01:54;94369.63;;;14.85;65.84
49393;BME280;35268;42.642;23.308;2023-09-30T05:04:20;94368.31;;;14.91;66.07
49393;BME280;35268;42.642;23.308;2023-09-30T05:06:45;94376.38;;;14.91;66.43
49393;BME280;35268;42.642;23.308;2023-09-30T05:09:11;94379.59;;;14.84;66.51
49393;BME280;35268;42.642;23.308;2023-09-30T05:11:37;94381.09;;;14.94;66.86
49393;BME280;35268;42.642;23.308;2023-09-30T05:14:03;94372.38;;;14.97;66.48
49393;BME280;35268;42.642;23.308;2023-09-30T05:16:30;94373.97;;;14.98;66.81
49393;BME280;35268;42.642;23.308;2023-09-30T05:18:56;94378.22;;;14.99;66.85
49393;BME280;35268;42.642;23.308;2023-09-30T05:21:22;94378.66;;;15.01;66.61
49393;BME280;35268;42.642;23.308;2023-09-30T05:23:47;94373.44;;;15.05;66.62
49393;BME280;35268;42.642;23.308;2023-09-30T05:26:13;94365.31;;;15.14;66.38
49393;BME280;35268;42.642;23.308;2023-09-30T05:28:38;94374.28;;;15.18;66.28
49393;BME280;35268;42.642;23.308;2023-09-30T05:31:04;94367.78;;;15.19;65.04
49393;BME280;35268;42.642;23.308;2023-09-30T05:33:30;94378.69;;;15.22;64.77
49393;BME280;35268;42.642;23.308;2023-09-30T05:35:55;94375.31;;;15.25;64.82
49393;BME280;35268;42.642;23.308;2023-09-30T05:38:21;94383.28;;;15.34;64.38
49393;BME280;35268;42.642;23.308;2023-09-30T05:40:48;94383.09;;;15.39;64.24
49393;BME280;35268;42.642;23.308;2023-09-30T05:43:14;94386.22;;;15.41;64.48
49393;BME280;35268;42.642;23.308;2023-09-30T05:45:39;94387.47;;;15.44;64.68
49393;BME280;35268;42.642;23.308;2023-09-30T05:48:14;94393.28;;;15.46;64.97
49393;BME280;35268;42.642;23.308;2023-09-30T05:50:40;94393.75;;;15.48;64.82
49393;BME280;35268;42.642;23.308;2023-09-30T05:53:06;94390.50;;;15.55;64.78
49393;BME280;35268;42.642;23.308;2023-09-30T05:55:31;94395.47;;;15.65;64.66
49393;BME280;35268;42.642;23.308;2023-09-30T05:57:57;94393.69;;;15.69;64.79
49393;BME280;35268;42.642;23.308;2023-09-30T06:00:24;94388.47;;;15.73;65.11
49393;BME280;35268;42.642;23.308;2023-09-30T06:02:57;94397.31;;;15.73;65.14
49393;BME280;35268;42.642;23.308;2023-09-30T06:05:23;94399.03;;;15.78;64.75
49393;BME280;35268;42.642;23.308;2023-09-30T06:07:51;94396.69;;;15.89;64.37
49393;BME280;35268;42.642;23.308;2023-09-30T06:10:17;94401.19;;;15.97;63.96
49393;BME280;35268;42.642;23.308;2023-09-30T06:12:50;94401.09;;;16.05;63.53
49393;BME280;35268;42.642;23.308;2023-09-30T06:15:20;94399.28;;;16.10;63.46
49393;BME280;35268;42.642;23.308;2023-09-30T06:17:49;94406.03;;;16.16;62.17
49393;BME280;35268;42.642;23.308;2023-09-30T06:20:14;94401.00;;;16.27;62.45
49393;BME280;35268;42.642;23.308;2023-09-30T06:22:45;94407.50;;;16.38;62.11
49393;BME280;35268;42.642;23.308;2023-09-30T06:25:13;94414.00;;;16.49;62.11
49393;BME280;35268;42.642;23.308;2023-09-30T06:27:41;94409.41;;;16.62;61.01
49393;BME280;35268;42.642;23.308;2023-09-30T06:30:07;94405.03;;;16.70;60.49
49393;BME280;35268;42.642;23.308;2023-09-30T06:32:34;94413.31;;;16.77;60.00
49393;BME280;35268;42.642;23.308;2023-09-30T06:35:02;94424.66;;;16.82;59.84
49393;BME280;35268;42.642;23.308;2023-09-30T06:37:27;94416.25;;;16.84;58.81
49393;BME280;35268;42.642;23.308;2023-09-30T06:39:55;94420.72;;;16.92;57.45
49393;BME280;35268;42.642;23.308;2023-09-30T06:42:21;94418.25;;;16.87;56.71
49393;BME280;35268;42.642;23.308;2023-09-30T06:44:46;94421.97;;;16.95;56.99
49393;BME280;35268;42.642;23.308;2023-09-30T06:47:12;94418.69;;;17.01;56.68
49393;BME280;35268;42.642;23.308;2023-09-30T06:49:38;94414.66;;;17.08;55.38
49393;BME280;35268;42.642;23.308;2023-09-30T06:52:04;94412.59;;;17.17;54.26
49393;BME280;35268;42.642;23.308;2023-09-30T06:54:30;94420.47;;;17.22;54.12
49393;BME280;35268;42.642;23.308;2023-09-30T06:56:56;94430.75;;;17.32;54.76
49393;BME280;35268;42.642;23.308;2023-09-30T06:59:21;94427.13;;;17.40;53.45
49393;BME280;35268;42.642;23.308;2023-09-30T07:01:47;94424.63;;;17.48;53.31
49393;BME280;35268;42.642;23.308;2023-09-30T07:04:12;94422.56;;;17.57;52.95
49393;BME280;35268;42.642;23.308;2023-09-30T07:06:38;94435.56;;;17.67;52.69
49393;BME280;35268;42.642;23.308;2023-09-30T07:09:03;94438.97;;;17.80;52.72
49393;BME280;35268;42.642;23.308;2023-09-30T07:11:30;94434.81;;;17.82;50.82
49393;BME280;35268;42.642;23.308;2023-09-30T07:13:58;94439.09;;;17.83;52.19
49393;BME280;35268;42.642;23.308;2023-09-30T07:16:23;94442.06;;;17.94;51.48
49393;BME280;35268;42.642;23.308;2023-09-30T07:18:49;94441.03;;;17.99;51.43
49393;BME280;35268;42.642;23.308;2023-09-30T07:21:15;94440.09;;;18.07;50.14
49393;BME280;35268;42.642;23.308;2023-09-30T07:23:41;94437.25;;;18.16;49.77
49393;BME280;35268;42.642;23.308;2023-09-30T07:26:06;94434.63;;;18.19;49.66
49393;BME280;35268;42.642;23.308;2023-09-30T07:28:33;94441.75;;;18.28;50.22
49393;BME280;35268;42.642;23.308;2023-09-30T07:30:58;94447.69;;;18.33;48.11
49393;BME280;35268;42.642;23.308;2023-09-30T07:33:23;94447.09;;;18.40;47.41
49393;BME280;35268;42.642;23.308;2023-09-30T07:35:49;94446.91;;;18.49;47.53
49393;BME280;35268;42.642;23.308;2023-09-30T07:38:14;94447.25;;;18.63;47.33
49393;BME280;35268;42.642;23.308;2023-09-30T07:40:40;94450.22;;;18.74;46.87
49393;BME280;35268;42.642;23.308;2023-09-30T07:43:06;94444.72;;;18.86;45.63
49393;BME280;35268;42.642;23.308;2023-09-30T07:45:32;94448.09;;;18.99;45.08
49393;BME280;35268;42.642;23.308;2023-09-30T07:47:57;94444.88;;;19.09;44.25
49393;BME280;35268;42.642;23.308;2023-09-30T07:50:24;94443.59;;;19.22;43.56
49393;BME280;35268;42.642;23.308;2023-09-30T07:52:49;94448.19;;;19.38;44.47
49393;BME280;35268;42.642;23.308;2023-09-30T07:55:15;94443.41;;;19.51;42.47
49393;BME280;35268;42.642;23.308;2023-09-30T07:57:41;94450.09;;;19.57;41.52
49393;BME280;35268;42.642;23.308;2023-09-30T08:00:08;94452.59;;;19.65;41.31
49393;BME280;35268;42.642;23.308;2023-09-30T08:02:40;94445.69;;;19.68;41.98
49393;BME280;35268;42.642;23.308;2023-09-30T08:05:06;94446.72;;;19.79;42.85
49393;BME280;35268;42.642;23.308;2023-09-30T08:07:33;94444.63;;;19.92;41.31
49393;BME280;35268;42.642;23.308;2023-09-30T08:09:59;94445.19;;;20.01;42.00
49393;BME280;35268;42.642;23.308;2023-09-30T08:12:24;94442.69;;;20.12;41.56
49393;BME280;35268;42.642;23.308;2023-09-30T08:14:50;94436.59;;;20.19;40.31
49393;BME280;35268;42.642;23.308;2023-09-30T08:17:17;94440.72;;;20.32;40.51
49393;BME280;35268;42.642;23.308;2023-09-30T08:19:43;94437.75;;;20.41;39.20
49393;BME280;35268;42.642;23.308;2023-09-30T08:22:09;94437.03;;;20.44;38.87
49393;BME280;35268;42.642;23.308;2023-09-30T08:24:35;94449.84;;;20.47;38.98
49393;BME280;35268;42.642;23.308;2023-09-30T08:27:01;94437.88;;;20.48;39.85
49393;BME280;35268;42.642;23.308;2023-09-30T08:29:26;94439.69;;;20.63;40.21
49393;BME280;35268;42.642;23.308;2023-09-30T08:31:52;94430.19;;;20.73;39.95
49393;BME280;35268;42.642;23.308;2023-09-30T08:34:17;94440.34;;;20.80;39.13
49393;BME280;35268;42.642;23.308;2023-09-30T08:36:45;94440.75;;;20.82;39.27
49393;BME280;35268;42.642;23.308;2023-09-30T08:39:10;94444.06;;;20.95;39.04
49393;BME280;35268;42.642;23.308;2023-09-30T08:41:36;94438.06;;;21.09;36.41
49393;BME280;35268;42.642;23.308;2023-09-30T08:44:03;94446.69;;;21.18;36.53
49393;BME280;35268;42.642;23.308;2023-09-30T08:46:33;94440.34;;;21.33;36.42
49393;BME280;35268;42.642;23.308;2023-09-30T08:49:01;94440.13;;;21.46;36.28
49393;BME280;35268;42.642;23.308;2023-09-30T08:51:28;94432.50;;;21.55;36.55
49393;BME280;35268;42.642;23.308;2023-09-30T08:53:54;94436.47;;;21.64;35.38
49393;BME280;35268;42.642;23.308;2023-09-30T08:56:25;94436.16;;;21.70;34.55
49393;BME280;35268;42.642;23.308;2023-09-30T08:58:52;94444.31;;;21.73;34.88
49393;BME280;35268;42.642;23.308;2023-09-30T09:01:19;94440.59;;;21.85;34.49
49393;BME280;35268;42.642;23.308;2023-09-30T09:03:45;94435.69;;;21.98;34.95
49393;BME280;35268;42.642;23.308;2023-09-30T09:06:12;94429.94;;;22.03;33.62
49393;BME280;35268;42.642;23.308;2023-09-30T09:08:38;94423.75;;;22.06;33.77
49393;BME280;35268;42.642;23.308;2023-09-30T09:11:03;94426.53;;;22.13;33.84
49393;BME280;35268;42.642;23.308;2023-09-30T09:13:47;94423.47;;;22.18;33.76
49393;BME280;35268;42.642;23.308;2023-09-30T09:16:15;94411.53;;;22.23;34.33
49393;BME280;35268;42.642;23.308;2023-09-30T09:18:42;94418.59;;;22.31;33.68
49393;BME280;35268;42.642;23.308;2023-09-30T09:21:11;94424.53;;;22.44;34.40
49393;BME280;35268;42.642;23.308;2023-09-30T09:23:42;94416.47;;;22.51;34.46
49393;BME280;35268;42.642;23.308;2023-09-30T09:26:09;94411.06;;;22.58;36.80
49393;BME280;35268;42.642;23.308;2023-09-30T09:28:35;94412.31;;;22.68;33.71
49393;BME280;35268;42.642;23.308;2023-09-30T09:31:34;94422.09;;;22.80;34.26
49393;BME280;35268;42.642;23.308;2023-09-30T09:34:01;94412.81;;;22.84;31.81
49393;BME280;35268;42.642;23.308;2023-09-30T09:36:41;94417.53;;;22.95;32.76
49393;BME280;35268;42.642;23.308;2023-09-30T09:39:07;94417.97;;;23.00;33.48
49393;BME280;35268;42.642;23.308;2023-09-30T09:41:48;94421.56;;;23.08;34.72
49393;BME280;35268;42.642;23.308;2023-09-30T09:44:15;94417.31;;;23.18;34.89
49393;BME280;35268;42.642;23.308;2023-09-30T09:46:41;94414.28;;;23.27;34.96
49393;BME280;35268;42.642;23.308;2023-09-30T09:49:07;94406.88;;;23.27;31.52
49393;BME280;35268;42.642;23.308;2023-09-30T09:51:33;94410.69;;;23.08;30.25
49393;BME280;35268;42.642;23.308;2023-09-30T09:53:59;94406.81;;;23.13;33.69
49393;BME280;35268;42.642;23.308;2023-09-30T09:56:24;94415.41;;;23.22;33.61
49393;BME280;35268;42.642;23.308;2023-09-30T09:58:50;94406.50;;;23.32;33.48
49393;BME280;35268;42.642;23.308;2023-09-30T10:01:16;94394.13;;;23.35;32.85
49393;BME280;35268;42.642;23.308;2023-09-30T10:03:42;94402.31;;;23.46;34.15
49393;BME280;35268;42.642;23.308;2023-09-30T10:06:08;94401.19;;;23.57;32.28
49393;BME280;35268;42.642;23.308;2023-09-30T10:08:39;94389.56;;;23.64;32.05
49393;BME280;35268;42.642;23.308;2023-09-30T10:11:06;94403.13;;;23.60;30.01
49393;BME280;35268;42.642;23.308;2023-09-30T10:13:58;94392.97;;;23.39;30.81
49393;BME280;35268;42.642;23.308;2023-09-30T10:22:21;94382.19;;;23.68;29.32
49393;BME280;35268;42.642;23.308;2023-09-30T10:24:50;94387.66;;;23.75;28.92
49393;BME280;35268;42.642;23.308;2023-09-30T10:29:48;94369.06;;;23.99;29.92
49393;BME280;35268;42.642;23.308;2023-09-30T10:32:18;94364.44;;;24.10;29.68
49393;BME280;35268;42.642;23.308;2023-09-30T10:34:50;94358.22;;;24.20;28.86
49393;BME280;35268;42.642;23.308;2023-09-30T10:37:21;94366.38;;;24.17;29.15
49393;BME280;35268;42.642;23.308;2023-09-30T10:42:46;94358.59;;;24.44;27.27
49393;BME280;35268;42.642;23.308;2023-09-30T10:50:54;94354.34;;;24.50;25.82
49393;BME280;35268;42.642;23.308;2023-09-30T10:53:22;94352.75;;;24.49;26.23
49393;BME280;35268;42.642;23.308;2023-09-30T10:55:54;94341.88;;;24.38;25.73
49393;BME280;35268;42.642;23.308;2023-09-30T10:58:20;94339.16;;;24.35;26.91
49393;BME280;35268;42.642;23.308;2023-09-30T11:00:55;94343.81;;;24.49;26.19
49393;BME280;35268;42.642;23.308;2023-09-30T11:03:21;94351.22;;;24.55;25.72
49393;BME280;35268;42.642;23.308;2023-09-30T11:05:48;94341.50;;;24.51;25.15
49393;BME280;35268;42.642;23.308;2023-09-30T11:08:15;94341.09;;;24.49;25.44
49393;BME280;35268;42.642;23.308;2023-09-30T11:10:49;94343.81;;;24.41;25.96
49393;BME280;35268;42.642;23.308;2023-09-30T11:13:16;94332.53;;;24.32;26.10
49393;BME280;35268;42.642;23.308;2023-09-30T11:15:44;94340.31;;;24.37;25.38
49393;BME280;35268;42.642;23.308;2023-09-30T11:18:17;94336.81;;;24.40;25.56
49393;BME280;35268;42.642;23.308;2023-09-30T11:20:44;94331.78;;;24.57;26.23
49393;BME280;35268;42.642;23.308;2023-09-30T11:23:11;94332.50;;;24.79;25.54
49393;BME280;35268;42.642;23.308;2023-09-30T11:25:38;94330.53;;;24.94;25.21
49393;BME280;35268;42.642;23.308;2023-09-30T11:28:17;94328.16;;;25.07;25.33
49393;BME280;35268;42.642;23.308;2023-09-30T11:31:00;94331.63;;;25.25;26.13
49393;BME280;35268;42.642;23.308;2023-09-30T11:33:27;94326.84;;;25.47;24.84
49393;BME280;35268;42.642;23.308;2023-09-30T11:36:04;94326.03;;;25.57;24.66
49393;BME280;35268;42.642;23.308;2023-09-30T11:38:31;94331.03;;;25.73;24.49
49393;BME280;35268;42.642;23.308;2023-09-30T11:41:01;94310.03;;;25.59;23.96
49393;BME280;35268;42.642;23.308;2023-09-30T11:43:31;94320.09;;;25.73;24.82
49393;BME280;35268;42.642;23.308;2023-09-30T11:46:10;94319.63;;;25.86;24.96
49393;BME280;35268;42.642;23.308;2023-09-30T11:48:55;94311.00;;;25.98;24.79
49393;BME280;35268;42.642;23.308;2023-09-30T11:51:24;94317.66;;;25.93;24.31
49393;BME280;35268;42.642;23.308;2023-09-30T11:53:50;94308.31;;;25.91;23.49
49393;BME280;35268;42.642;23.308;2023-09-30T11:56:23;94300.16;;;25.80;24.48
49393;BME280;35268;42.642;23.308;2023-09-30T11:58:55;94307.63;;;25.72;24.95
49393;BME280;35268;42.642;23.308;2023-09-30T12:01:20;94307.28;;;25.63;24.86
49393;BME280;35268;42.642;23.308;2023-09-30T12:03:50;94296.28;;;25.77;24.75
49393;BME280;35268;42.642;23.308;2023-09-30T12:06:17;94304.03;;;25.90;24.85
49393;BME280;35268;42.642;23.308;2023-09-30T12:08:43;94300.34;;;26.14;24.81
49393;BME280;35268;42.642;23.308;2023-09-30T12:11:08;94297.44;;;26.36;25.22
49393;BME280;35268;42.642;23.308;2023-09-30T12:13:38;94293.75;;;26.60;24.49
49393;BME280;35268;42.642;23.308;2023-09-30T12:16:03;94287.91;;;26.58;24.11
49393;BME280;35268;42.642;23.308;2023-09-30T12:18:29;94290.63;;;26.55;23.90
49393;BME280;35268;42.642;23.308;2023-09-30T12:20:54;94276.88;;;26.66;23.40
49393;BME280;35268;42.642;23.308;2023-09-30T12:23:20;94275.41;;;26.54;24.11
49393;BME280;35268;42.642;23.308;2023-09-30T12:25:46;94273.78;;;26.64;24.13
49393;BME280;35268;42.642;23.308;2023-09-30T12:28:12;94277.13;;;26.78;23.79
49393;BME280;35268;42.642;23.308;2023-09-30T12:30:39;94267.84;;;27.07;23.65
49393;BME280;35268;42.642;23.308;2023-09-30T12:33:06;94267.66;;;27.25;23.68
49393;BME280;35268;42.642;23.308;2023-09-30T12:35:32;94262.81;;;27.36;23.59
49393;BME280;35268;42.642;23.308;2023-09-30T12:37:57;94268.56;;;27.45;23.00
49393;BME280;35268;42.642;23.308;2023-09-30T12:40:23;94265.66;;;27.56;22.36
49393;BME280;35268;42.642;23.308;2023-09-30T12:42:48;94268.63;;;27.69;22.41
49393;BME280;35268;42.642;23.308;2023-09-30T12:45:14;94262.19;;;27.83;22.96
49393;BME280;35268;42.642;23.308;2023-09-30T12:47:39;94259.34;;;27.90;21.95
49393;BME280;35268;42.642;23.308;2023-09-30T12:50:06;94263.47;;;28.01;22.14
49393;BME280;35268;42.642;23.308;2023-09-30T12:52:34;94257.41;;;28.14;21.85
49393;BME280;35268;42.642;23.308;2023-09-30T12:54:59;94251.38;;;28.23;21.69
49393;BME280;35268;42.642;23.308;2023-09-30T12:57:25;94254.25;;;28.39;22.18
49393;BME280;35268;42.642;23.308;2023-09-30T12:59:51;94251.28;;;28.53;21.63
49393;BME280;35268;42.642;23.308;2023-09-30T13:02:16;94245.38;;;28.55;21.28
49393;BME280;35268;42.642;23.308;2023-09-30T13:04:44;94244.91;;;28.60;21.89
49393;BME280;35268;42.642;23.308;2023-09-30T13:07:10;94245.78;;;28.53;21.17
49393;BME280;35268;42.642;23.308;2023-09-30T13:09:36;94238.41;;;28.50;21.70
49393;BME280;35268;42.642;23.308;2023-09-30T13:12:06;94243.91;;;28.50;21.40